sensor_id;sensor_type;location;lat;lon;timestamp;P1;durP1;ratioP1;P2;durP2;ratioP2
69991;SDS011;57332;51.320;-0.580;2022-10-16T00:02:18;10.45;;;1.90;;
69991;SDS011;57332;51.320;-0.580;2022-10-16T00:04:45;9.82;;;1.98;;
69991;SDS011;57332;51.320;-0.580;2022-10-16T00:07:12;11.80;;;1.50;;
69991;SDS011;57332;51.320;-0.580;2022-10-16T00:09:39;10.35;;;1.88;;
69991;SDS011;57332;51.320;-0.580;2022-10-16T00:12:06;17.70;;;2.10;;
69991;SDS011;57332;51.320;-0.580;2022-10-16T00:14:33;10.82;;;1.55;;
69991;SDS011;57332;51.320;-0.580;2022-10-16T00:17:00;6.95;;;1.58;;
69991;SDS011;57332;51.320;-0.580;2022-10-16T00:19:27;14.77;;;1.90;;
69991;SDS011;57332;51.320;-0.580;2022-10-16T00:21:53;12.50;;;1.88;;
69991;SDS011;57332;51.320;-0.580;2022-10-16T00:24:20;11.02;;;2.28;;
69991;SDS011;57332;51.320;-0.580;2022-10-16T00:26:49;9.18;;;1.65;;
69991;SDS011;57332;51.320;-0.580;2022-10-16T00:29:15;13.38;;;1.77;;
69991;SDS011;57332;51.320;-0.580;2022-10-16T00:31:42;10.07;;;2.08;;
69991;SDS011;57332;51.320;-0.580;2022-10-16T00:34:10;10.73;;;1.33;;
69991;SDS011;57332;51.320;-0.580;2022-10-16T00:36:37;8.82;;;1.55;;
69991;SDS011;57332;51.320;-0.580;2022-10-16T00:39:04;11.65;;;2.17;;
69991;SDS011;57332;51.320;-0.580;2022-10-16T00:41:31;8.95;;;1.67;;
69991;SDS011;57332;51.320;-0.580;2022-10-16T00:44:02;7.75;;;1.38;;
69991;SDS011;57332;51.320;-0.580;2022-10-16T00:51:33;9.35;;;1.40;;
69991;SDS011;57332;51.320;-0.580;2022-10-16T00:54:01;8.48;;;1.45;;
69991;SDS011;57332;51.320;-0.580;2022-10-16T00:56:28;9.57;;;1.73;;
69991;SDS011;57332;51.320;-0.580;2022-10-16T00:58:55;9.20;;;1.70;;
69991;SDS011;57332;51.320;-0.580;2022-10-16T01:01:22;11.70;;;1.80;;
69991;SDS011;57332;51.320;-0.580;2022-10-16T01:03:49;9.13;;;1.70;;
69991;SDS011;57332;51.320;-0.580;2022-10-16T01:09:04;8.48;;;1.17;;
69991;SDS011;57332;51.320;-0.580;2022-10-16T01:14:02;11.73;;;1.50;;
69991;SDS011;57332;51.320;-0.580;2022-10-16T01:16:34;11.48;;;1.73;;
69991;SDS011;57332;51.320;-0.580;2022-10-16T01:22:06;8.27;;;1.42;;
69991;SDS011;57332;51.320;-0.580;2022-10-16T01:34:50;12.48;;;2.13;;
69991;SDS011;57332;51.320;-0.580;2022-10-16T01:37:23;12.85;;;1.73;;
69991;SDS011;57332;51.320;-0.580;2022-10-16T01:39:52;9.88;;;1.70;;
69991;SDS011;57332;51.320;-0.580;2022-10-16T01:42:22;8.13;;;1.52;;
69991;SDS011;57332;51.320;-0.580;2022-10-16T01:44:51;11.30;;;2.08;;
69991;SDS011;57332;51.320;-0.580;2022-10-16T01:47:22;11.57;;;1.75;;
69991;SDS011;57332;51.320;-0.580;2022-10-16T01:49:50;13.35;;;1.73;;
69991;SDS011;57332;51.320;-0.580;2022-10-16T01:52:20;8.02;;;1.48;;
69991;SDS011;57332;51.320;-0.580;2022-10-16T01:54:49;12.20;;;2.40;;
69991;SDS011;57332;51.320;-0.580;2022-10-16T01:57:17;8.70;;;1.60;;
69991;SDS011;57332;51.320;-0.580;2022-10-16T01:59:48;10.15;;;1.58;;
69991;SDS011;57332;51.320;-0.580;2022-10-16T02:02:17;9.25;;;1.33;;
69991;SDS011;57332;51.320;-0.580;2022-10-16T02:07:11;10.23;;;1.60;;
69991;SDS011;57332;51.320;-0.580;2022-10-16T02:09:38;9.93;;;1.50;;
69991;SDS011;57332;51.320;-0.580;2022-10-16T02:12:07;10.75;;;1.75;;
69991;SDS011;57332;51.320;-0.580;2022-10-16T02:14:36;9.55;;;1.42;;
69991;SDS011;57332;51.320;-0.580;2022-10-16T02:17:14;11.00;;;1.58;;
69991;SDS011;57332;51.320;-0.580;2022-10-16T02:19:41;6.47;;;1.40;;
69991;SDS011;57332;51.320;-0.580;2022-10-16T02:22:09;7.95;;;1.60;;
69991;SDS011;57332;51.320;-0.580;2022-10-16T02:24:43;6.53;;;1.17;;
69991;SDS011;57332;51.320;-0.580;2022-10-16T02:27:19;8.43;;;1.30;;
69991;SDS011;57332;51.320;-0.580;2022-10-16T02:29:49;8.18;;;1.20;;
69991;SDS011;57332;51.320;-0.580;2022-10-16T02:32:23;8.02;;;1.25;;
69991;SDS011;57332;51.320;-0.580;2022-10-16T02:34:51;6.00;;;1.25;;
69991;SDS011;57332;51.320;-0.580;2022-10-16T02:37:21;4.85;;;0.75;;
69991;SDS011;57332;51.320;-0.580;2022-10-16T02:39:48;8.40;;;1.80;;
69991;SDS011;57332;51.320;-0.580;2022-10-16T02:42:15;8.23;;;1.00;;
69991;SDS011;57332;51.320;-0.580;2022-10-16T02:44:41;6.30;;;1.05;;
69991;SDS011;57332;51.320;-0.580;2022-10-16T02:47:08;5.72;;;0.90;;
69991;SDS011;57332;51.320;-0.580;2022-10-16T02:49:35;5.72;;;1.02;;
69991;SDS011;57332;51.320;-0.580;2022-10-16T02:52:02;9.38;;;1.40;;
69991;SDS011;57332;51.320;-0.580;2022-10-16T02:54:29;5.88;;;1.00;;
69991;SDS011;57332;51.320;-0.580;2022-10-16T02:56:55;8.38;;;1.30;;
69991;SDS011;57332;51.320;-0.580;2022-10-16T02:59:22;4.20;;;1.27;;
69991;SDS011;57332;51.320;-0.580;2022-10-16T03:01:49;9.10;;;1.33;;
69991;SDS011;57332;51.320;-0.580;2022-10-16T03:04:16;9.15;;;1.55;;
69991;SDS011;57332;51.320;-0.580;2022-10-16T03:06:43;10.75;;;1.80;;
69991;SDS011;57332;51.320;-0.580;2022-10-16T03:09:10;9.23;;;1.08;;
69991;SDS011;57332;51.320;-0.580;2022-10-16T03:11:36;10.00;;;1.80;;
69991;SDS011;57332;51.320;-0.580;2022-10-16T03:14:03;6.80;;;1.40;;
69991;SDS011;57332;51.320;-0.580;2022-10-16T03:16:30;7.13;;;1.58;;
69991;SDS011;57332;51.320;-0.580;2022-10-16T03:18:57;9.20;;;1.17;;
69991;SDS011;57332;51.320;-0.580;2022-10-16T03:21:24;6.28;;;1.40;;
69991;SDS011;57332;51.320;-0.580;2022-10-16T03:23:51;8.88;;;1.63;;
69991;SDS011;57332;51.320;-0.580;2022-10-16T03:26:18;8.13;;;1.60;;
69991;SDS011;57332;51.320;-0.580;2022-10-16T03:28:44;7.35;;;1.40;;
69991;SDS011;57332;51.320;-0.580;2022-10-16T03:31:12;10.82;;;1.65;;
69991;SDS011;57332;51.320;-0.580;2022-10-16T03:33:38;9.82;;;2.38;;
69991;SDS011;57332;51.320;-0.580;2022-10-16T03:36:05;9.73;;;1.33;;
69991;SDS011;57332;51.320;-0.580;2022-10-16T03:38:35;8.60;;;1.40;;
69991;SDS011;57332;51.320;-0.580;2022-10-16T03:41:02;9.15;;;2.30;;
69991;SDS011;57332;51.320;-0.580;2022-10-16T03:43:30;6.60;;;1.40;;
69991;SDS011;57332;51.320;-0.580;2022-10-16T03:45:57;7.47;;;1.15;;
69991;SDS011;57332;51.320;-0.580;2022-10-16T03:48:24;5.88;;;1.50;;
69991;SDS011;57332;51.320;-0.580;2022-10-16T03:50:50;6.57;;;1.27;;
69991;SDS011;57332;51.320;-0.580;2022-10-16T03:53:18;9.48;;;1.42;;
69991;SDS011;57332;51.320;-0.580;2022-10-16T03:55:45;12.18;;;1.58;;
69991;SDS011;57332;51.320;-0.580;2022-10-16T03:58:11;6.75;;;1.35;;
69991;SDS011;57332;51.320;-0.580;2022-10-16T04:00:42;12.40;;;1.67;;
69991;SDS011;57332;51.320;-0.580;2022-10-16T04:03:09;6.60;;;1.55;;
69991;SDS011;57332;51.320;-0.580;2022-10-16T04:05:36;8.07;;;1.65;;
69991;SDS011;57332;51.320;-0.580;2022-10-16T04:08:03;10.00;;;1.50;;
69991;SDS011;57332;51.320;-0.580;2022-10-16T04:10:29;11.50;;;1.40;;
69991;SDS011;57332;51.320;-0.580;2022-10-16T04:12:56;9.15;;;1.20;;
69991;SDS011;57332;51.320;-0.580;2022-10-16T04:15:24;6.50;;;1.15;;
69991;SDS011;57332;51.320;-0.580;2022-10-16T04:17:51;8.23;;;1.40;;
69991;SDS011;57332;51.320;-0.580;2022-10-16T04:20:18;10.48;;;1.50;;
69991;SDS011;57332;51.320;-0.580;2022-10-16T04:22:45;7.32;;;1.40;;
69991;SDS011;57332;51.320;-0.580;2022-10-16T04:25:12;6.13;;;1.33;;
69991;SDS011;57332;51.320;-0.580;2022-10-16T04:27:39;6.18;;;1.45;;
69991;SDS011;57332;51.320;-0.580;2022-10-16T04:30:11;9.57;;;1.50;;
69991;SDS011;57332;51.320;-0.580;2022-10-16T04:32:38;12.48;;;1.40;;
69991;SDS011;57332;51.320;-0.580;2022-10-16T04:35:05;10.35;;;1.60;;
69991;SDS011;57332;51.320;-0.580;2022-10-16T04:37:32;11.00;;;1.70;;
69991;SDS011;57332;51.320;-0.580;2022-10-16T04:39:58;11.55;;;1.30;;
69991;SDS011;57332;51.320;-0.580;2022-10-16T04:42:25;8.07;;;1.58;;
69991;SDS011;57332;51.320;-0.580;2022-10-16T04:44:52;5.10;;;1.10;;
69991;SDS011;57332;51.320;-0.580;2022-10-16T04:47:19;8.80;;;1.30;;
69991;SDS011;57332;51.320;-0.580;2022-10-16T04:49:45;9.15;;;1.10;;
69991;SDS011;57332;51.320;-0.580;2022-10-16T04:52:12;7.90;;;1.20;;
69991;SDS011;57332;51.320;-0.580;2022-10-16T04:54:39;7.32;;;1.15;;
69991;SDS011;57332;51.320;-0.580;2022-10-16T04:57:06;5.72;;;1.63;;
69991;SDS011;57332;51.320;-0.580;2022-10-16T04:59:33;9.95;;;1.20;;
69991;SDS011;57332;51.320;-0.580;2022-10-16T05:01:59;7.88;;;1.08;;
69991;SDS011;57332;51.320;-0.580;2022-10-16T05:04:26;10.32;;;1.30;;
69991;SDS011;57332;51.320;-0.580;2022-10-16T05:06:53;9.00;;;1.45;;
69991;SDS011;57332;51.320;-0.580;2022-10-16T05:09:20;6.28;;;1.00;;
69991;SDS011;57332;51.320;-0.580;2022-10-16T05:11:46;11.50;;;1.33;;
69991;SDS011;57332;51.320;-0.580;2022-10-16T05:14:13;8.52;;;1.23;;
69991;SDS011;57332;51.320;-0.580;2022-10-16T05:16:40;12.55;;;1.27;;
69991;SDS011;57332;51.320;-0.580;2022-10-16T05:19:07;11.90;;;1.73;;
69991;SDS011;57332;51.320;-0.580;2022-10-16T05:21:53;8.60;;;1.05;;
69991;SDS011;57332;51.320;-0.580;2022-10-16T05:24:19;11.95;;;1.38;;
69991;SDS011;57332;51.320;-0.580;2022-10-16T05:26:46;5.75;;;1.10;;
69991;SDS011;57332;51.320;-0.580;2022-10-16T05:29:13;10.23;;;1.13;;
69991;SDS011;57332;51.320;-0.580;2022-10-16T05:31:40;13.75;;;1.83;;
69991;SDS011;57332;51.320;-0.580;2022-10-16T05:34:07;6.35;;;1.17;;
69991;SDS011;57332;51.320;-0.580;2022-10-16T05:36:34;10.32;;;1.15;;
69991;SDS011;57332;51.320;-0.580;2022-10-16T05:39:01;11.95;;;2.17;;
69991;SDS011;57332;51.320;-0.580;2022-10-16T05:41:28;9.27;;;1.42;;
69991;SDS011;57332;51.320;-0.580;2022-10-16T05:43:54;4.85;;;1.10;;
69991;SDS011;57332;51.320;-0.580;2022-10-16T05:46:21;7.90;;;1.20;;
69991;SDS011;57332;51.320;-0.580;2022-10-16T05:48:48;7.88;;;1.80;;
69991;SDS011;57332;51.320;-0.580;2022-10-16T05:51:17;7.38;;;1.30;;
69991;SDS011;57332;51.320;-0.580;2022-10-16T05:53:44;6.85;;;1.20;;
69991;SDS011;57332;51.320;-0.580;2022-10-16T05:56:11;8.20;;;1.40;;
69991;SDS011;57332;51.320;-0.580;2022-10-16T05:58:39;11.88;;;1.73;;
69991;SDS011;57332;51.320;-0.580;2022-10-16T06:03:37;8.80;;;1.50;;
69991;SDS011;57332;51.320;-0.580;2022-10-16T06:06:08;9.88;;;1.30;;
69991;SDS011;57332;51.320;-0.580;2022-10-16T06:08:38;8.45;;;1.60;;
69991;SDS011;57332;51.320;-0.580;2022-10-16T06:11:06;11.07;;;1.50;;
69991;SDS011;57332;51.320;-0.580;2022-10-16T06:13:33;10.63;;;1.80;;
69991;SDS011;57332;51.320;-0.580;2022-10-16T06:16:00;8.52;;;1.55;;
69991;SDS011;57332;51.320;-0.580;2022-10-16T06:18:27;8.32;;;1.38;;
69991;SDS011;57332;51.320;-0.580;2022-10-16T06:20:54;6.32;;;1.85;;
69991;SDS011;57332;51.320;-0.580;2022-10-16T06:23:22;9.00;;;1.63;;
69991;SDS011;57332;51.320;-0.580;2022-10-16T06:25:48;6.72;;;1.58;;
69991;SDS011;57332;51.320;-0.580;2022-10-16T06:28:15;7.53;;;1.48;;
69991;SDS011;57332;51.320;-0.580;2022-10-16T06:30:42;6.90;;;1.20;;
69991;SDS011;57332;51.320;-0.580;2022-10-16T06:33:12;6.88;;;1.50;;
69991;SDS011;57332;51.320;-0.580;2022-10-16T06:35:39;10.85;;;1.55;;
69991;SDS011;57332;51.320;-0.580;2022-10-16T06:38:06;6.50;;;1.30;;
69991;SDS011;57332;51.320;-0.580;2022-10-16T06:40:33;8.10;;;1.73;;
69991;SDS011;57332;51.320;-0.580;2022-10-16T06:43:00;10.57;;;1.55;;
69991;SDS011;57332;51.320;-0.580;2022-10-16T06:45:27;6.50;;;1.30;;
69991;SDS011;57332;51.320;-0.580;2022-10-16T06:47:53;6.70;;;1.88;;
69991;SDS011;57332;51.320;-0.580;2022-10-16T06:50:20;5.88;;;1.17;;
69991;SDS011;57332;51.320;-0.580;2022-10-16T06:52:47;7.78;;;1.90;;
69991;SDS011;57332;51.320;-0.580;2022-10-16T06:55:14;7.05;;;1.60;;
69991;SDS011;57332;51.320;-0.580;2022-10-16T06:57:41;8.20;;;1.80;;
69991;SDS011;57332;51.320;-0.580;2022-10-16T07:00:08;12.05;;;1.58;;
69991;SDS011;57332;51.320;-0.580;2022-10-16T07:02:35;11.38;;;1.80;;
69991;SDS011;57332;51.320;-0.580;2022-10-16T07:05:05;12.02;;;1.63;;
69991;SDS011;57332;51.320;-0.580;2022-10-16T07:07:31;11.27;;;1.85;;
69991;SDS011;57332;51.320;-0.580;2022-10-16T07:09:58;8.90;;;1.92;;
69991;SDS011;57332;51.320;-0.580;2022-10-16T07:12:25;6.68;;;1.23;;
69991;SDS011;57332;51.320;-0.580;2022-10-16T07:14:52;7.45;;;1.20;;
69991;SDS011;57332;51.320;-0.580;2022-10-16T07:17:20;7.38;;;1.30;;
69991;SDS011;57332;51.320;-0.580;2022-10-16T07:19:47;6.72;;;1.05;;
69991;SDS011;57332;51.320;-0.580;2022-10-16T07:22:14;10.55;;;1.50;;
69991;SDS011;57332;51.320;-0.580;2022-10-16T07:24:41;9.25;;;1.52;;
69991;SDS011;57332;51.320;-0.580;2022-10-16T07:27:08;10.05;;;1.85;;
69991;SDS011;57332;51.320;-0.580;2022-10-16T07:29:35;7.55;;;1.30;;
69991;SDS011;57332;51.320;-0.580;2022-10-16T07:32:02;9.73;;;1.58;;
69991;SDS011;57332;51.320;-0.580;2022-10-16T07:34:28;7.05;;;1.73;;
69991;SDS011;57332;51.320;-0.580;2022-10-16T07:36:55;10.70;;;1.70;;
69991;SDS011;57332;51.320;-0.580;2022-10-16T07:39:22;9.48;;;1.42;;
69991;SDS011;57332;51.320;-0.580;2022-10-16T07:41:49;13.45;;;1.50;;
69991;SDS011;57332;51.320;-0.580;2022-10-16T07:44:16;8.05;;;1.35;;
69991;SDS011;57332;51.320;-0.580;2022-10-16T07:46:42;7.82;;;1.42;;
69991;SDS011;57332;51.320;-0.580;2022-10-16T07:49:09;7.53;;;1.70;;
69991;SDS011;57332;51.320;-0.580;2022-10-16T07:51:36;9.27;;;1.30;;
69991;SDS011;57332;51.320;-0.580;2022-10-16T07:54:04;13.68;;;1.70;;
69991;SDS011;57332;51.320;-0.580;2022-10-16T07:56:31;9.05;;;1.90;;
69991;SDS011;57332;51.320;-0.580;2022-10-16T07:58:59;9.85;;;1.50;;
69991;SDS011;57332;51.320;-0.580;2022-10-16T08:01:26;8.70;;;1.20;;
69991;SDS011;57332;51.320;-0.580;2022-10-16T08:03:53;8.30;;;1.23;;
69991;SDS011;57332;51.320;-0.580;2022-10-16T08:06:20;12.70;;;1.48;;
69991;SDS011;57332;51.320;-0.580;2022-10-16T08:08:53;8.07;;;1.98;;
69991;SDS011;57332;51.320;-0.580;2022-10-16T08:11:20;10.50;;;1.70;;
69991;SDS011;57332;51.320;-0.580;2022-10-16T08:13:47;7.10;;;1.85;;
69991;SDS011;57332;51.320;-0.580;2022-10-16T08:16:14;8.27;;;1.40;;
69991;SDS011;57332;51.320;-0.580;2022-10-16T08:18:41;11.38;;;1.85;;
69991;SDS011;57332;51.320;-0.580;2022-10-16T08:21:12;8.25;;;1.50;;
69991;SDS011;57332;51.320;-0.580;2022-10-16T08:23:47;12.50;;;1.50;;
69991;SDS011;57332;51.320;-0.580;2022-10-16T08:26:22;9.38;;;1.52;;
69991;SDS011;57332;51.320;-0.580;2022-10-16T08:28:49;10.15;;;1.73;;
69991;SDS011;57332;51.320;-0.580;2022-10-16T08:31:17;7.28;;;1.55;;
69991;SDS011;57332;51.320;-0.580;2022-10-16T08:33:44;10.25;;;1.92;;
69991;SDS011;57332;51.320;-0.580;2022-10-16T08:36:13;7.88;;;1.42;;
69991;SDS011;57332;51.320;-0.580;2022-10-16T08:38:43;8.45;;;2.28;;
69991;SDS011;57332;51.320;-0.580;2022-10-16T08:46:19;12.48;;;2.00;;
69991;SDS011;57332;51.320;-0.580;2022-10-16T08:48:49;7.97;;;2.08;;
69991;SDS011;57332;51.320;-0.580;2022-10-16T08:53:48;11.93;;;1.38;;
69991;SDS011;57332;51.320;-0.580;2022-10-16T08:56:17;7.82;;;1.45;;
69991;SDS011;57332;51.320;-0.580;2022-10-16T08:58:44;9.93;;;1.73;;
69991;SDS011;57332;51.320;-0.580;2022-10-16T09:01:14;9.40;;;1.55;;
69991;SDS011;57332;51.320;-0.580;2022-10-16T09:04:03;7.65;;;1.50;;
69991;SDS011;57332;51.320;-0.580;2022-10-16T09:16:58;8.70;;;1.50;;
69991;SDS011;57332;51.320;-0.580;2022-10-16T09:19:31;9.43;;;1.60;;
69991;SDS011;57332;51.320;-0.580;2022-10-16T09:22:12;9.98;;;1.95;;
69991;SDS011;57332;51.320;-0.580;2022-10-16T09:24:43;5.75;;;1.13;;
69991;SDS011;57332;51.320;-0.580;2022-10-16T09:27:11;12.73;;;1.90;;
69991;SDS011;57332;51.320;-0.580;2022-10-16T09:29:53;6.88;;;1.20;;
69991;SDS011;57332;51.320;-0.580;2022-10-16T09:32:25;7.13;;;1.45;;
69991;SDS011;57332;51.320;-0.580;2022-10-16T09:34:55;10.05;;;1.20;;
69991;SDS011;57332;51.320;-0.580;2022-10-16T09:37:28;7.97;;;1.10;;
69991;SDS011;57332;51.320;-0.580;2022-10-16T09:40:02;7.95;;;1.30;;
69991;SDS011;57332;51.320;-0.580;2022-10-16T09:42:37;7.20;;;1.50;;
69991;SDS011;57332;51.320;-0.580;2022-10-16T09:45:20;10.45;;;1.35;;
69991;SDS011;57332;51.320;-0.580;2022-10-16T09:50:27;6.03;;;1.02;;
69991;SDS011;57332;51.320;-0.580;2022-10-16T09:53:06;10.35;;;1.42;;
69991;SDS011;57332;51.320;-0.580;2022-10-16T09:55:36;9.52;;;1.20;;
69991;SDS011;57332;51.320;-0.580;2022-10-16T09:58:11;10.38;;;1.70;;
69991;SDS011;57332;51.320;-0.580;2022-10-16T10:00:53;7.57;;;1.17;;
69991;SDS011;57332;51.320;-0.580;2022-10-16T10:03:38;7.53;;;1.13;;
69991;SDS011;57332;51.320;-0.580;2022-10-16T10:06:25;11.48;;;2.22;;
69991;SDS011;57332;51.320;-0.580;2022-10-16T10:11:46;8.43;;;1.98;;
69991;SDS011;57332;51.320;-0.580;2022-10-16T10:17:06;9.80;;;1.30;;
69991;SDS011;57332;51.320;-0.580;2022-10-16T10:19:48;8.85;;;1.90;;
69991;SDS011;57332;51.320;-0.580;2022-10-16T10:30:24;6.35;;;1.40;;
69991;SDS011;57332;51.320;-0.580;2022-10-16T10:38:06;6.65;;;1.40;;
69991;SDS011;57332;51.320;-0.580;2022-10-16T10:45:46;6.63;;;1.13;;
69991;SDS011;57332;51.320;-0.580;2022-10-16T10:48:29;7.35;;;0.90;;
69991;SDS011;57332;51.320;-0.580;2022-10-16T11:01:16;6.65;;;0.90;;
69991;SDS011;57332;51.320;-0.580;2022-10-16T11:06:28;8.93;;;1.40;;
69991;SDS011;57332;51.320;-0.580;2022-10-16T11:08:59;9.95;;;1.20;;
69991;SDS011;57332;51.320;-0.580;2022-10-16T11:14:03;9.65;;;1.08;;
69991;SDS011;57332;51.320;-0.580;2022-10-16T11:16:35;7.60;;;1.50;;
69991;SDS011;57332;51.320;-0.580;2022-10-16T11:21:36;5.63;;;1.02;;
69991;SDS011;57332;51.320;-0.580;2022-10-16T11:24:09;9.85;;;1.30;;
69991;SDS011;57332;51.320;-0.580;2022-10-16T11:26:41;7.05;;;1.40;;
69991;SDS011;57332;51.320;-0.580;2022-10-16T11:29:26;5.43;;;0.90;;
69991;SDS011;57332;51.320;-0.580;2022-10-16T11:31:57;6.60;;;1.20;;
69991;SDS011;57332;51.320;-0.580;2022-10-16T11:34:49;5.85;;;0.90;;
69991;SDS011;57332;51.320;-0.580;2022-10-16T11:37:17;3.50;;;1.15;;
69991;SDS011;57332;51.320;-0.580;2022-10-16T11:39:46;8.60;;;1.00;;
69991;SDS011;57332;51.320;-0.580;2022-10-16T11:42:18;5.68;;;1.20;;
69991;SDS011;57332;51.320;-0.580;2022-10-16T11:48:15;7.63;;;1.27;;
69991;SDS011;57332;51.320;-0.580;2022-10-16T11:50:43;7.70;;;1.40;;
69991;SDS011;57332;51.320;-0.580;2022-10-16T11:56:20;7.43;;;1.40;;
69991;SDS011;57332;51.320;-0.580;2022-10-16T11:58:52;7.78;;;1.20;;
69991;SDS011;57332;51.320;-0.580;2022-10-16T12:01:26;7.63;;;1.40;;
69991;SDS011;57332;51.320;-0.580;2022-10-16T12:07:03;8.48;;;1.50;;
69991;SDS011;57332;51.320;-0.580;2022-10-16T12:11:58;8.73;;;1.60;;
69991;SDS011;57332;51.320;-0.580;2022-10-16T12:16:57;8.80;;;1.90;;
69991;SDS011;57332;51.320;-0.580;2022-10-16T12:19:27;12.00;;;3.28;;
69991;SDS011;57332;51.320;-0.580;2022-10-16T12:21:55;10.02;;;2.67;;
69991;SDS011;57332;51.320;-0.580;2022-10-16T12:24:30;7.70;;;2.17;;
69991;SDS011;57332;51.320;-0.580;2022-10-16T12:26:57;7.78;;;2.25;;
69991;SDS011;57332;51.320;-0.580;2022-10-16T12:29:35;8.63;;;2.30;;
69991;SDS011;57332;51.320;-0.580;2022-10-16T12:32:18;8.02;;;2.58;;
69991;SDS011;57332;51.320;-0.580;2022-10-16T12:35:16;11.20;;;1.90;;
69991;SDS011;57332;51.320;-0.580;2022-10-16T12:37:44;7.78;;;1.60;;
69991;SDS011;57332;51.320;-0.580;2022-10-16T12:42:50;6.90;;;1.83;;
69991;SDS011;57332;51.320;-0.580;2022-10-16T12:45:24;8.43;;;1.83;;
69991;SDS011;57332;51.320;-0.580;2022-10-16T12:47:52;7.13;;;1.50;;
69991;SDS011;57332;51.320;-0.580;2022-10-16T12:53:20;8.88;;;1.88;;
69991;SDS011;57332;51.320;-0.580;2022-10-16T12:58:31;10.05;;;2.08;;
69991;SDS011;57332;51.320;-0.580;2022-10-16T13:06:35;8.65;;;2.17;;
69991;SDS011;57332;51.320;-0.580;2022-10-16T13:09:07;8.95;;;1.65;;
69991;SDS011;57332;51.320;-0.580;2022-10-16T13:25:18;6.30;;;1.48;;
69991;SDS011;57332;51.320;-0.580;2022-10-16T13:28:10;5.40;;;1.30;;
69991;SDS011;57332;51.320;-0.580;2022-10-16T13:35:30;13.45;;;1.60;;
69991;SDS011;57332;51.320;-0.580;2022-10-16T13:38:31;7.13;;;1.33;;
69991;SDS011;57332;51.320;-0.580;2022-10-16T13:43:18;5.32;;;1.08;;
69991;SDS011;57332;51.320;-0.580;2022-10-16T13:45:52;6.57;;;1.10;;
69991;SDS011;57332;51.320;-0.580;2022-10-16T13:48:19;5.55;;;1.20;;
69991;SDS011;57332;51.320;-0.580;2022-10-16T13:50:46;6.22;;;1.40;;
69991;SDS011;57332;51.320;-0.580;2022-10-16T13:53:24;6.88;;;1.30;;
69991;SDS011;57332;51.320;-0.580;2022-10-16T13:55:50;7.60;;;1.17;;
69991;SDS011;57332;51.320;-0.580;2022-10-16T13:58:18;8.15;;;1.60;;
69991;SDS011;57332;51.320;-0.580;2022-10-16T14:03:44;9.05;;;1.77;;
69991;SDS011;57332;51.320;-0.580;2022-10-16T14:06:15;7.50;;;1.65;;
69991;SDS011;57332;51.320;-0.580;2022-10-16T14:08:44;9.48;;;1.55;;
69991;SDS011;57332;51.320;-0.580;2022-10-16T14:11:12;9.10;;;1.50;;
69991;SDS011;57332;51.320;-0.580;2022-10-16T14:13:40;6.75;;;1.48;;
69991;SDS011;57332;51.320;-0.580;2022-10-16T14:16:10;7.68;;;1.48;;
69991;SDS011;57332;51.320;-0.580;2022-10-16T14:18:37;12.30;;;1.67;;
69991;SDS011;57332;51.320;-0.580;2022-10-16T14:21:06;9.90;;;1.90;;
69991;SDS011;57332;51.320;-0.580;2022-10-16T14:26:40;6.32;;;1.40;;
69991;SDS011;57332;51.320;-0.580;2022-10-16T14:29:12;9.57;;;1.60;;
69991;SDS011;57332;51.320;-0.580;2022-10-16T14:31:40;8.52;;;1.67;;
69991;SDS011;57332;51.320;-0.580;2022-10-16T14:36:55;8.27;;;1.25;;
69991;SDS011;57332;51.320;-0.580;2022-10-16T14:39:22;7.00;;;1.42;;
69991;SDS011;57332;51.320;-0.580;2022-10-16T14:41:50;8.18;;;1.30;;
69991;SDS011;57332;51.320;-0.580;2022-10-16T14:44:19;6.35;;;1.58;;
69991;SDS011;57332;51.320;-0.580;2022-10-16T14:46:49;9.40;;;1.98;;
69991;SDS011;57332;51.320;-0.580;2022-10-16T14:49:17;9.60;;;2.03;;
69991;SDS011;57332;51.320;-0.580;2022-10-16T14:51:46;8.18;;;1.50;;
69991;SDS011;57332;51.320;-0.580;2022-10-16T14:54:14;8.52;;;1.73;;
69991;SDS011;57332;51.320;-0.580;2022-10-16T14:56:51;7.20;;;1.35;;
69991;SDS011;57332;51.320;-0.580;2022-10-16T14:59:19;10.15;;;1.70;;
69991;SDS011;57332;51.320;-0.580;2022-10-16T15:01:46;9.10;;;1.42;;
69991;SDS011;57332;51.320;-0.580;2022-10-16T15:04:13;9.40;;;1.65;;
69991;SDS011;57332;51.320;-0.580;2022-10-16T15:06:41;7.88;;;1.77;;
69991;SDS011;57332;51.320;-0.580;2022-10-16T15:09:08;5.88;;;1.38;;
69991;SDS011;57332;51.320;-0.580;2022-10-16T15:11:34;7.22;;;1.60;;
69991;SDS011;57332;51.320;-0.580;2022-10-16T15:14:02;7.95;;;1.50;;
69991;SDS011;57332;51.320;-0.580;2022-10-16T15:16:30;12.05;;;2.20;;
69991;SDS011;57332;51.320;-0.580;2022-10-16T15:18:57;18.00;;;4.88;;
69991;SDS011;57332;51.320;-0.580;2022-10-16T15:21:28;29.15;;;10.95;;
69991;SDS011;57332;51.320;-0.580;2022-10-16T15:23:55;40.38;;;15.35;;
69991;SDS011;57332;51.320;-0.580;2022-10-16T15:26:24;41.55;;;16.00;;
69991;SDS011;57332;51.320;-0.580;2022-10-16T15:28:50;53.25;;;22.42;;
69991;SDS011;57332;51.320;-0.580;2022-10-16T15:31:17;50.22;;;20.90;;
69991;SDS011;57332;51.320;-0.580;2022-10-16T15:33:44;41.42;;;16.63;;
69991;SDS011;57332;51.320;-0.580;2022-10-16T15:36:17;24.77;;;10.65;;
69991;SDS011;57332;51.320;-0.580;2022-10-16T15:38:44;23.83;;;9.85;;
69991;SDS011;57332;51.320;-0.580;2022-10-16T15:41:12;15.57;;;5.80;;
69991;SDS011;57332;51.320;-0.580;2022-10-16T15:43:38;13.10;;;4.78;;
69991;SDS011;57332;51.320;-0.580;2022-10-16T15:46:06;13.55;;;4.32;;
69991;SDS011;57332;51.320;-0.580;2022-10-16T15:48:33;10.15;;;3.05;;
69991;SDS011;57332;51.320;-0.580;2022-10-16T15:51:00;8.55;;;2.40;;
69991;SDS011;57332;51.320;-0.580;2022-10-16T15:53:27;12.70;;;2.78;;
69991;SDS011;57332;51.320;-0.580;2022-10-16T15:55:54;7.32;;;2.60;;
69991;SDS011;57332;51.320;-0.580;2022-10-16T15:58:20;7.80;;;2.20;;
69991;SDS011;57332;51.320;-0.580;2022-10-16T16:00:54;8.57;;;2.17;;
69991;SDS011;57332;51.320;-0.580;2022-10-16T16:03:21;10.65;;;1.70;;
69991;SDS011;57332;51.320;-0.580;2022-10-16T16:05:48;8.02;;;1.63;;
69991;SDS011;57332;51.320;-0.580;2022-10-16T16:08:14;7.15;;;1.65;;
69991;SDS011;57332;51.320;-0.580;2022-10-16T16:10:41;6.78;;;1.48;;
69991;SDS011;57332;51.320;-0.580;2022-10-16T16:13:08;5.28;;;1.35;;
69991;SDS011;57332;51.320;-0.580;2022-10-16T16:15:38;5.72;;;1.75;;
69991;SDS011;57332;51.320;-0.580;2022-10-16T16:18:04;9.18;;;1.65;;
69991;SDS011;57332;51.320;-0.580;2022-10-16T16:20:37;7.15;;;1.83;;
69991;SDS011;57332;51.320;-0.580;2022-10-16T16:23:03;9.68;;;2.53;;
69991;SDS011;57332;51.320;-0.580;2022-10-16T16:25:30;7.72;;;1.73;;
69991;SDS011;57332;51.320;-0.580;2022-10-16T16:27:57;8.80;;;1.60;;
69991;SDS011;57332;51.320;-0.580;2022-10-16T16:30:24;7.05;;;1.70;;
69991;SDS011;57332;51.320;-0.580;2022-10-16T16:32:53;5.70;;;1.38;;
69991;SDS011;57332;51.320;-0.580;2022-10-16T16:35:20;5.18;;;1.45;;
69991;SDS011;57332;51.320;-0.580;2022-10-16T16:37:47;6.65;;;1.80;;
69991;SDS011;57332;51.320;-0.580;2022-10-16T16:40:14;6.32;;;1.67;;
69991;SDS011;57332;51.320;-0.580;2022-10-16T16:42:41;5.65;;;1.40;;
69991;SDS011;57332;51.320;-0.580;2022-10-16T16:45:08;4.50;;;1.65;;
69991;SDS011;57332;51.320;-0.580;2022-10-16T16:47:34;7.32;;;1.60;;
69991;SDS011;57332;51.320;-0.580;2022-10-16T16:50:04;5.57;;;2.22;;
69991;SDS011;57332;51.320;-0.580;2022-10-16T16:52:31;5.15;;;1.70;;
69991;SDS011;57332;51.320;-0.580;2022-10-16T16:54:58;4.47;;;1.40;;
69991;SDS011;57332;51.320;-0.580;2022-10-16T16:57:25;13.57;;;2.20;;
69991;SDS011;57332;51.320;-0.580;2022-10-16T16:59:52;4.32;;;1.58;;
69991;SDS011;57332;51.320;-0.580;2022-10-16T17:02:19;4.00;;;1.65;;
69991;SDS011;57332;51.320;-0.580;2022-10-16T17:04:46;6.82;;;1.60;;
69991;SDS011;57332;51.320;-0.580;2022-10-16T17:07:13;7.07;;;1.77;;
69991;SDS011;57332;51.320;-0.580;2022-10-16T17:09:39;8.25;;;1.80;;
69991;SDS011;57332;51.320;-0.580;2022-10-16T17:12:06;6.00;;;1.60;;